createdAt,value
2023-04-30T00:00:53.909Z,11.07
2023-04-30T00:03:17.122Z,10.90
2023-04-30T00:05:40.052Z,11.15
2023-04-30T00:08:02.955Z,11.48
2023-04-30T00:10:25.676Z,10.80
2023-04-30T00:12:48.288Z,10.38
2023-04-30T00:15:12.422Z,10.80
2023-04-30T00:17:35.078Z,11.30
2023-04-30T00:19:57.820Z,11.55
2023-04-30T00:22:20.440Z,10.27
2023-04-30T00:24:43.203Z,10.25
2023-04-30T00:27:05.941Z,10.95
2023-04-30T00:29:28.667Z,10.52
2023-04-30T00:31:51.482Z,11.18
2023-04-30T00:34:15.283Z,10.57
2023-04-30T00:36:37.918Z,10.50
2023-04-30T00:39:00.582Z,11.20
2023-04-30T00:41:23.626Z,10.48
2023-04-30T00:43:47.210Z,10.70
2023-04-30T00:46:09.851Z,10.23
2023-04-30T00:48:32.827Z,10.10
2023-04-30T00:50:56.148Z,10.48
2023-04-30T00:53:20.191Z,10.80
2023-04-30T00:55:44.436Z,11.27
2023-04-30T00:58:10.812Z,11.15
2023-04-30T01:00:34.601Z,11.77
2023-04-30T01:02:57.995Z,11.35
2023-04-30T01:05:22.950Z,10.82
2023-04-30T01:07:46.512Z,11.13
2023-04-30T01:10:09.717Z,11.00
2023-04-30T01:13:02.358Z,11.60
2023-04-30T01:15:30.570Z,10.93
2023-04-30T01:18:21.075Z,10.82
2023-04-30T01:21:07.200Z,10.82
2023-04-30T01:23:34.116Z,11.00
2023-04-30T01:26:06.494Z,11.48
2023-04-30T01:28:52.258Z,10.70
2023-04-30T01:31:18.045Z,10.65
2023-04-30T01:33:40.804Z,11.55
2023-04-30T01:36:22.350Z,11.60
2023-04-30T01:38:50.843Z,11.38
2023-04-30T01:41:51.834Z,11.13
2023-04-30T01:44:38.759Z,11.23
2023-04-30T01:47:13.013Z,10.65
2023-04-30T01:49:57.037Z,11.20
2023-04-30T01:52:37.673Z,11.23
2023-04-30T01:55:04.331Z,10.83
2023-04-30T01:57:35.095Z,10.90
2023-04-30T01:59:59.129Z,11.00
2023-04-30T02:02:21.909Z,10.95
2023-04-30T02:04:44.713Z,11.18
2023-04-30T02:07:07.357Z,11.23
2023-04-30T02:09:30.102Z,11.80
2023-04-30T02:11:52.640Z,11.63
2023-04-30T02:14:15.417Z,11.73
2023-04-30T02:16:38.269Z,11.68
2023-04-30T02:19:01.608Z,10.80
2023-04-30T02:21:24.264Z,12.02
2023-04-30T02:23:47.423Z,12.18
2023-04-30T02:26:10.273Z,11.52
2023-04-30T02:28:33.302Z,11.70
2023-04-30T02:30:55.961Z,11.80
2023-04-30T02:33:18.567Z,12.30
2023-04-30T02:35:41.792Z,12.05
2023-04-30T02:38:04.670Z,12.70
2023-04-30T02:40:27.428Z,12.40
2023-04-30T02:42:50.291Z,12.32
2023-04-30T02:45:12.919Z,12.02
2023-04-30T02:47:36.545Z,12.13
2023-04-30T02:49:59.397Z,12.27
2023-04-30T02:52:22.457Z,12.88
2023-04-30T02:54:45.128Z,12.87
2023-04-30T02:57:07.763Z,13.27
2023-04-30T02:59:30.421Z,12.52
2023-04-30T03:01:53.214Z,12.25
2023-04-30T03:04:16.901Z,12.25
2023-04-30T03:06:39.620Z,12.47
2023-04-30T03:09:02.466Z,13.05
2023-04-30T03:11:25.448Z,13.52
2023-04-30T03:13:51.502Z,12.73
2023-04-30T03:16:14.670Z,12.30
2023-04-30T03:18:37.498Z,12.80
2023-04-30T03:21:00.189Z,12.25
2023-04-30T03:23:23.431Z,13.18
2023-04-30T03:25:46.365Z,13.35
2023-04-30T03:28:09.001Z,12.32
2023-04-30T03:30:31.688Z,12.17
2023-04-30T03:32:54.462Z,13.00
2023-04-30T03:35:17.464Z,13.15
2023-04-30T03:37:40.070Z,12.80
2023-04-30T03:40:04.071Z,13.40
2023-04-30T03:42:27.123Z,12.60
2023-04-30T03:44:49.866Z,13.30
2023-04-30T03:47:12.570Z,13.27
2023-04-30T03:49:35.477Z,13.18
2023-04-30T03:51:58.216Z,13.65
2023-04-30T03:54:21.598Z,13.07
2023-04-30T03:56:44.517Z,12.82
2023-04-30T03:59:07.865Z,12.95
2023-04-30T04:01:30.929Z,13.30
2023-04-30T04:03:54.066Z,13.45
2023-04-30T04:06:16.668Z,13.20
2023-04-30T04:08:43.350Z,13.65
2023-04-30T04:11:06.011Z,13.80
2023-04-30T04:13:28.832Z,13.38
2023-04-30T04:15:51.483Z,14.02
2023-04-30T04:18:14.299Z,13.57
2023-04-30T04:20:37.226Z,13.07
2023-04-30T04:22:59.865Z,14.55
2023-04-30T04:25:25.033Z,14.32
2023-04-30T04:27:47.768Z,14.25
2023-04-30T04:30:11.111Z,14.10
2023-04-30T04:32:46.578Z,14.27
2023-04-30T04:35:09.521Z,14.15
2023-04-30T04:37:32.191Z,13.93
2023-04-30T04:39:55.537Z,13.90
2023-04-30T04:42:19.495Z,14.27
2023-04-30T04:44:42.666Z,13.63
2023-04-30T04:47:05.411Z,14.68
2023-04-30T04:49:28.110Z,14.63
2023-04-30T04:51:50.969Z,14.13
2023-04-30T04:54:13.972Z,14.50
2023-04-30T04:56:36.865Z,14.30
2023-04-30T04:59:01.624Z,15.00
2023-04-30T05:01:25.153Z,15.02
2023-04-30T05:03:49.263Z,14.90
2023-04-30T05:06:12.018Z,14.80
2023-04-30T05:08:34.625Z,14.65
2023-04-30T05:10:57.330Z,14.85
2023-04-30T05:13:20.231Z,14.82
2023-04-30T05:15:43.050Z,15.05
2023-04-30T05:18:05.641Z,14.52
2023-04-30T05:20:28.577Z,15.10
2023-04-30T05:22:51.399Z,14.18
2023-04-30T05:25:14.091Z,14.18
2023-04-30T05:27:36.836Z,14.27
2023-04-30T05:29:59.940Z,14.45
2023-04-30T05:32:23.375Z,14.15
2023-04-30T05:34:46.102Z,14.32
2023-04-30T05:37:08.738Z,14.23
2023-04-30T05:39:31.286Z,14.23
2023-04-30T05:41:54.126Z,14.15
2023-04-30T05:44:16.908Z,13.52
2023-04-30T05:46:39.609Z,14.15
2023-04-30T05:49:02.628Z,12.48
2023-04-30T05:51:25.419Z,12.88
2023-04-30T05:53:48.034Z,12.77
2023-04-30T05:56:10.659Z,12.05
2023-04-30T05:58:33.630Z,12.50
2023-04-30T06:00:56.463Z,12.25
2023-04-30T06:03:19.707Z,12.20
2023-04-30T06:05:42.982Z,11.52
2023-04-30T06:08:06.091Z,11.02
2023-04-30T06:10:28.903Z,11.00
2023-04-30T06:12:51.659Z,10.50
2023-04-30T06:15:14.300Z,11.15
2023-04-30T06:17:37.114Z,10.95
2023-04-30T06:20:02.572Z,10.25
2023-04-30T06:22:25.561Z,10.20
2023-04-30T06:25:08.963Z,10.65
2023-04-30T06:27:52.477Z,10.40
2023-04-30T06:30:15.417Z,10.27
2023-04-30T06:32:38.221Z,9.80
2023-04-30T06:35:00.885Z,9.75
2023-04-30T06:37:23.757Z,9.85
2023-04-30T06:39:46.817Z,9.45
2023-04-30T06:42:09.629Z,9.05
2023-04-30T06:44:33.173Z,9.57
2023-04-30T06:46:55.890Z,9.52
2023-04-30T06:49:18.539Z,9.63
2023-04-30T06:51:41.862Z,9.57
2023-04-30T06:54:04.810Z,9.32
2023-04-30T06:56:27.452Z,9.50
2023-04-30T06:58:50.499Z,9.38
2023-04-30T07:01:13.666Z,9.40
2023-04-30T07:03:36.487Z,9.35
2023-04-30T07:05:59.235Z,9.52
2023-04-30T07:08:22.409Z,10.13
2023-04-30T07:10:45.109Z,9.07
2023-04-30T07:13:08.439Z,9.43
2023-04-30T07:15:31.126Z,9.00
2023-04-30T07:17:54.236Z,8.65
2023-04-30T07:20:17.088Z,9.02
2023-04-30T07:22:39.894Z,8.80
2023-04-30T07:25:02.540Z,8.50
2023-04-30T07:27:25.310Z,9.15
2023-04-30T07:29:48.686Z,8.38
2023-04-30T07:32:11.390Z,8.45
2023-04-30T07:34:33.974Z,8.45
2023-04-30T07:36:56.861Z,7.95
2023-04-30T07:39:19.638Z,7.93
2023-04-30T07:41:42.520Z,7.53
2023-04-30T07:44:05.335Z,8.20
2023-04-30T07:46:28.982Z,7.72
2023-04-30T07:48:51.682Z,7.43
2023-04-30T07:51:14.356Z,7.03
2023-04-30T07:53:37.043Z,7.13
2023-04-30T07:55:59.782Z,7.18
2023-04-30T07:58:22.358Z,7.35
2023-04-30T08:00:45.095Z,7.03
2023-04-30T08:03:08.599Z,7.85
2023-04-30T08:05:31.628Z,7.68
2023-04-30T08:07:54.281Z,6.93
2023-04-30T08:10:17.248Z,7.40
2023-04-30T08:12:39.896Z,6.63
2023-04-30T08:15:06.681Z,6.43
2023-04-30T08:17:29.549Z,6.13
2023-04-30T08:19:52.857Z,6.60
2023-04-30T08:22:15.806Z,6.05
2023-04-30T08:24:38.682Z,6.00
2023-04-30T08:27:03.626Z,5.90
2023-04-30T08:29:26.461Z,5.13
2023-04-30T08:31:49.196Z,5.13
2023-04-30T08:34:11.981Z,4.88
2023-04-30T08:36:34.645Z,4.53
2023-04-30T08:38:57.659Z,4.50
2023-04-30T08:41:25.649Z,3.78
2023-04-30T08:43:51.023Z,3.72
2023-04-30T08:46:15.441Z,4.20
2023-04-30T08:48:39.650Z,4.22
2023-04-30T08:51:03.505Z,4.30
2023-04-30T08:53:26.265Z,4.07
2023-04-30T08:55:48.813Z,3.65
2023-04-30T08:58:11.676Z,3.72
2023-04-30T09:00:37.850Z,3.28
2023-04-30T09:03:01.388Z,3.90
2023-04-30T09:05:24.127Z,4.07
2023-04-30T09:08:02.568Z,3.55
2023-04-30T09:10:26.320Z,3.67
2023-04-30T09:13:18.038Z,3.22
2023-04-30T09:15:41.982Z,2.90
2023-04-30T09:18:18.850Z,3.30
2023-04-30T09:20:59.046Z,3.30
2023-04-30T09:23:21.968Z,2.80
2023-04-30T09:25:44.647Z,2.63
2023-04-30T09:28:11.697Z,3.00
2023-04-30T09:30:34.912Z,3.60
2023-04-30T09:32:57.668Z,3.08
2023-04-30T09:35:37.167Z,3.08
2023-04-30T09:38:03.396Z,2.83
2023-04-30T09:40:43.004Z,3.10
2023-04-30T09:43:06.559Z,3.33
2023-04-30T09:45:43.175Z,2.90
2023-04-30T09:48:16.544Z,3.70
2023-04-30T09:50:43.263Z,3.40
2023-04-30T09:53:10.690Z,3.40
2023-04-30T09:55:34.769Z,3.40
2023-04-30T09:57:58.623Z,3.50
2023-04-30T10:00:21.590Z,3.22
2023-04-30T10:02:44.406Z,3.78
2023-04-30T10:05:07.334Z,3.80
2023-04-30T10:07:36.392Z,3.42
2023-04-30T10:10:05.274Z,3.00
2023-04-30T10:12:39.346Z,3.28
2023-04-30T10:15:11.699Z,3.10
2023-04-30T10:17:41.121Z,2.80
2023-04-30T10:20:06.503Z,2.97
2023-04-30T10:22:30.672Z,3.05
2023-04-30T10:24:54.288Z,2.90
2023-04-30T10:27:18.082Z,2.80
2023-04-30T10:29:40.773Z,3.05
2023-04-30T10:32:05.425Z,2.85
2023-04-30T10:34:34.682Z,2.55
2023-04-30T10:37:04.414Z,2.85
2023-04-30T10:39:28.935Z,2.50
2023-04-30T10:41:52.344Z,2.60
2023-04-30T10:44:22.606Z,2.55
2023-04-30T10:46:46.764Z,2.70
2023-04-30T10:49:09.725Z,2.33
2023-04-30T10:51:49.142Z,2.20
2023-04-30T10:54:13.886Z,2.63
2023-04-30T10:56:36.641Z,2.22
2023-04-30T10:59:03.569Z,2.30
2023-04-30T11:01:27.070Z,2.58
2023-04-30T11:04:08.273Z,2.22
2023-04-30T11:06:52.527Z,2.55
2023-04-30T11:09:15.310Z,2.60
2023-04-30T11:11:39.070Z,2.22
2023-04-30T11:14:02.239Z,2.67
2023-04-30T11:16:31.712Z,2.50
2023-04-30T11:18:54.767Z,4.47
2023-04-30T11:21:21.325Z,2.13
2023-04-30T11:23:50.010Z,2.10
2023-04-30T11:26:12.803Z,2.20
2023-04-30T11:28:37.867Z,2.15
2023-04-30T11:31:01.156Z,2.10
2023-04-30T11:33:27.658Z,2.33
2023-04-30T11:35:53.763Z,2.40
2023-04-30T11:38:18.539Z,2.20
2023-04-30T11:40:42.592Z,2.00
2023-04-30T11:43:05.429Z,2.15
2023-04-30T11:45:28.054Z,2.15
2023-04-30T11:47:52.586Z,2.33
2023-04-30T11:50:27.075Z,2.17
2023-04-30T11:52:52.778Z,2.13
2023-04-30T11:55:18.002Z,2.60
2023-04-30T11:57:44.855Z,2.10
2023-04-30T12:00:10.176Z,1.95
2023-04-30T12:02:33.280Z,2.22
2023-04-30T12:04:56.459Z,2.08
2023-04-30T12:07:20.773Z,2.30
2023-04-30T12:09:55.202Z,2.00
2023-04-30T12:12:27.848Z,2.28
2023-04-30T12:14:50.816Z,1.92
2023-04-30T12:17:31.244Z,2.30
2023-04-30T12:19:55.219Z,2.30
2023-04-30T12:22:18.019Z,2.15
2023-04-30T12:24:40.670Z,2.00
2023-04-30T12:27:03.432Z,2.20
2023-04-30T12:29:26.256Z,2.15
2023-04-30T12:31:54.170Z,2.28
2023-04-30T12:34:18.562Z,2.13
2023-04-30T12:36:44.791Z,2.20
2023-04-30T12:39:09.565Z,2.05
2023-04-30T12:41:32.950Z,2.10
2023-04-30T12:44:24.775Z,2.13
2023-04-30T12:46:49.941Z,2.28
2023-04-30T12:49:12.874Z,2.35
2023-04-30T12:51:36.166Z,1.90
2023-04-30T12:53:59.257Z,2.40
2023-04-30T12:56:22.379Z,2.10
2023-04-30T12:58:48.052Z,2.15
2023-04-30T13:01:13.222Z,2.15
2023-04-30T13:03:36.538Z,2.05
2023-04-30T13:06:01.742Z,2.00
2023-04-30T13:08:25.011Z,2.10
2023-04-30T13:10:48.629Z,2.00
2023-04-30T13:13:13.134Z,1.90
2023-04-30T13:15:35.927Z,1.80
2023-04-30T13:17:59.200Z,2.10
2023-04-30T13:20:22.417Z,2.00
2023-04-30T13:22:45.897Z,2.10
2023-04-30T13:25:08.983Z,1.88
2023-04-30T13:27:31.565Z,1.90
2023-04-30T13:29:54.811Z,2.00
2023-04-30T13:32:17.642Z,1.77
2023-04-30T13:34:40.379Z,1.90
2023-04-30T13:37:03.028Z,1.83
2023-04-30T13:39:25.689Z,1.75
2023-04-30T13:41:49.515Z,1.90
2023-04-30T13:44:12.734Z,2.10
2023-04-30T13:46:35.809Z,1.80
2023-04-30T13:48:58.771Z,2.10
2023-04-30T13:51:21.326Z,1.80
2023-04-30T13:53:44.295Z,2.00
2023-04-30T13:56:07.387Z,1.92
2023-04-30T13:58:30.258Z,1.75
2023-04-30T14:00:53.043Z,1.98
2023-04-30T14:03:16.116Z,1.80
2023-04-30T14:05:39.422Z,1.70
2023-04-30T14:08:02.162Z,1.63
2023-04-30T14:10:25.070Z,1.98
2023-04-30T14:12:48.403Z,2.10
2023-04-30T14:15:11.258Z,1.80
2023-04-30T14:17:34.549Z,1.70
2023-04-30T14:19:57.897Z,1.80
2023-04-30T14:22:21.570Z,1.90
2023-04-30T14:24:44.197Z,1.52
2023-04-30T14:27:07.070Z,1.70
2023-04-30T14:29:29.907Z,1.70
2023-04-30T14:31:52.864Z,1.52
2023-04-30T14:34:15.922Z,1.50
2023-04-30T14:36:38.712Z,1.80
2023-04-30T14:39:02.390Z,1.60
2023-04-30T14:41:25.827Z,1.75
2023-04-30T14:43:48.560Z,1.80
2023-04-30T14:46:12.015Z,1.80
2023-04-30T14:48:34.786Z,1.50
2023-04-30T14:50:58.220Z,1.52
2023-04-30T14:53:21.355Z,1.70
2023-04-30T14:55:44.090Z,1.67
2023-04-30T14:58:07.197Z,1.40
2023-04-30T15:00:30.918Z,1.80
2023-04-30T15:02:53.590Z,1.70
2023-04-30T15:05:16.689Z,1.67
2023-04-30T15:07:39.739Z,2.10
2023-04-30T15:10:03.467Z,1.73
2023-04-30T15:12:26.434Z,2.13
2023-04-30T15:14:49.176Z,1.83
2023-04-30T15:17:11.839Z,1.90
2023-04-30T15:19:34.586Z,1.88
2023-04-30T15:21:57.976Z,1.88
2023-04-30T15:24:20.675Z,2.28
2023-04-30T15:26:43.420Z,2.03
2023-04-30T15:29:06.073Z,1.83
2023-04-30T15:31:30.498Z,2.35
2023-04-30T15:33:53.255Z,2.28
2023-04-30T15:36:15.882Z,2.33
2023-04-30T15:38:38.994Z,2.50
2023-04-30T15:41:01.625Z,2.05
2023-04-30T15:43:24.465Z,2.35
2023-04-30T15:45:48.439Z,2.35
2023-04-30T15:48:11.535Z,2.58
2023-04-30T15:50:34.196Z,2.33
2023-04-30T15:52:57.095Z,2.65
2023-04-30T15:55:19.702Z,2.80
2023-04-30T15:57:42.513Z,2.60
2023-04-30T16:00:06.430Z,2.88
2023-04-30T16:02:35.848Z,2.75
2023-04-30T16:04:58.602Z,2.88
2023-04-30T16:07:21.401Z,3.03
2023-04-30T16:09:45.990Z,3.15
2023-04-30T16:12:08.597Z,3.42
2023-04-30T16:14:31.342Z,3.75
2023-04-30T16:16:54.059Z,3.60
2023-04-30T16:19:17.318Z,3.78
2023-04-30T16:21:40.671Z,3.80
2023-04-30T16:24:03.758Z,3.50
2023-04-30T16:26:26.830Z,3.17
2023-04-30T16:28:49.674Z,3.40
2023-04-30T16:31:14.112Z,3.38
2023-04-30T16:33:36.827Z,3.10
2023-04-30T16:36:00.212Z,2.65
2023-04-30T16:38:23.123Z,3.08
2023-04-30T16:40:45.824Z,3.20
2023-04-30T16:43:09.349Z,2.88
2023-04-30T16:45:32.471Z,3.15
2023-04-30T16:47:55.448Z,2.58
2023-04-30T16:50:18.492Z,3.00
2023-04-30T16:52:41.181Z,3.67
2023-04-30T16:55:04.786Z,3.17
2023-04-30T16:57:27.640Z,2.80
2023-04-30T16:59:50.907Z,2.50
2023-04-30T17:02:13.958Z,2.40
2023-04-30T17:04:44.742Z,2.60
2023-04-30T17:07:27.809Z,2.78
2023-04-30T17:10:11.540Z,2.60
2023-04-30T17:12:34.839Z,2.50
2023-04-30T17:14:57.740Z,3.17
2023-04-30T17:17:20.566Z,3.67
2023-04-30T17:19:43.375Z,3.60
2023-04-30T17:22:06.169Z,3.00
2023-04-30T17:24:28.904Z,3.30
2023-04-30T17:26:52.006Z,3.22
2023-04-30T17:29:14.988Z,3.13
2023-04-30T17:31:38.058Z,2.78
2023-04-30T17:34:01.041Z,2.80
2023-04-30T17:36:24.986Z,2.50
2023-04-30T17:38:47.855Z,2.90
2023-04-30T17:41:10.612Z,2.92
2023-04-30T17:43:33.219Z,3.30
2023-04-30T17:45:57.358Z,2.92
2023-04-30T17:48:20.152Z,2.92
2023-04-30T17:50:43.325Z,3.28
2023-04-30T17:53:06.737Z,3.17
2023-04-30T17:55:29.612Z,3.92
2023-04-30T17:57:52.565Z,3.40
2023-04-30T18:00:17.045Z,3.22
2023-04-30T18:02:40.444Z,3.60
2023-04-30T18:05:03.845Z,3.60
2023-04-30T18:07:26.910Z,3.50
2023-04-30T18:09:50.869Z,5.50
2023-04-30T18:12:14.339Z,5.95
2023-04-30T18:14:37.335Z,5.70
2023-04-30T18:17:00.332Z,6.50
2023-04-30T18:19:22.952Z,6.60
2023-04-30T18:21:45.734Z,6.18
2023-04-30T18:24:08.899Z,5.78
2023-04-30T18:26:31.624Z,5.65
2023-04-30T18:28:55.142Z,4.82
2023-04-30T18:31:18.449Z,4.60
2023-04-30T18:33:41.514Z,4.82
2023-04-30T18:36:06.061Z,4.70
2023-04-30T18:38:28.722Z,4.85
2023-04-30T18:40:55.860Z,4.72
2023-04-30T18:43:19.132Z,4.93
2023-04-30T18:45:41.865Z,5.30
2023-04-30T18:48:05.027Z,5.00
2023-04-30T18:50:27.796Z,5.03
2023-04-30T18:52:50.892Z,5.30
2023-04-30T18:55:14.311Z,5.10
2023-04-30T18:57:40.481Z,5.32
2023-04-30T19:00:06.849Z,5.00
2023-04-30T19:02:29.659Z,5.50
2023-04-30T19:04:53.801Z,5.47
2023-04-30T19:07:17.067Z,5.78
2023-04-30T19:09:39.755Z,5.10
2023-04-30T19:12:03.778Z,5.53
2023-04-30T19:14:26.443Z,5.03
2023-04-30T19:16:50.078Z,5.35
2023-04-30T19:19:13.118Z,5.80
2023-04-30T19:21:36.517Z,5.10
2023-04-30T19:24:00.413Z,5.38
2023-04-30T19:26:25.452Z,4.90
2023-04-30T19:28:48.433Z,5.60
2023-04-30T19:31:12.753Z,5.53
2023-04-30T19:33:39.276Z,6.35
2023-04-30T19:36:02.004Z,6.18
2023-04-30T19:38:25.036Z,6.00
2023-04-30T19:40:52.502Z,6.53
2023-04-30T19:43:16.255Z,6.20
2023-04-30T19:45:47.564Z,6.32
2023-04-30T19:48:11.850Z,6.32
2023-04-30T19:50:34.750Z,5.95
2023-04-30T19:52:57.641Z,6.80
2023-04-30T19:55:20.582Z,6.38
2023-04-30T19:57:43.797Z,6.45
2023-04-30T20:00:07.532Z,6.25
2023-04-30T20:02:31.382Z,6.35
2023-04-30T20:04:54.747Z,5.95
2023-04-30T20:07:18.953Z,6.43
2023-04-30T20:09:41.887Z,6.40
2023-04-30T20:12:05.059Z,6.40
2023-04-30T20:14:27.999Z,6.53
2023-04-30T20:16:54.428Z,6.38
2023-04-30T20:19:17.173Z,6.20
2023-04-30T20:21:40.319Z,6.30
2023-04-30T20:24:04.394Z,6.70
2023-04-30T20:26:27.489Z,6.93
2023-04-30T20:28:51.347Z,6.70
2023-04-30T20:31:15.316Z,6.75
2023-04-30T20:33:38.130Z,7.20
2023-04-30T20:36:00.826Z,7.60
2023-04-30T20:38:23.958Z,6.80
2023-04-30T20:40:47.178Z,7.15
2023-04-30T20:43:11.198Z,6.55
2023-04-30T20:45:34.151Z,7.32
2023-04-30T20:47:57.520Z,8.00
2023-04-30T20:50:20.692Z,8.60
2023-04-30T20:52:43.841Z,7.88
2023-04-30T20:55:06.818Z,7.30
2023-04-30T20:57:29.497Z,7.25
2023-04-30T20:59:52.442Z,7.78
2023-04-30T21:02:15.087Z,8.00
2023-04-30T21:04:37.985Z,7.80
2023-04-30T21:07:00.972Z,8.85
2023-04-30T21:09:23.823Z,8.05
2023-04-30T21:11:46.428Z,8.15
2023-04-30T21:14:09.370Z,8.82
2023-04-30T21:16:32.469Z,7.85
2023-04-30T21:18:55.679Z,8.32
2023-04-30T21:21:18.312Z,8.55
2023-04-30T21:23:41.512Z,8.43
2023-04-30T21:26:04.289Z,8.02
2023-04-30T21:28:27.147Z,7.50
2023-04-30T21:30:50.032Z,6.85
2023-04-30T21:33:12.978Z,7.30
2023-04-30T21:35:35.623Z,7.93
2023-04-30T21:37:58.432Z,7.72
2023-04-30T21:40:21.288Z,7.68
2023-04-30T21:42:43.994Z,7.00
2023-04-30T21:45:07.235Z,6.97
2023-04-30T21:47:30.784Z,7.68
2023-04-30T21:49:53.908Z,7.95
2023-04-30T21:52:16.967Z,7.78
2023-04-30T21:54:39.526Z,7.88
2023-04-30T21:57:02.731Z,7.85
2023-04-30T21:59:25.520Z,7.88
2023-04-30T22:01:48.189Z,7.80
2023-04-30T22:04:10.966Z,8.10
2023-04-30T22:06:34.867Z,7.88
2023-04-30T22:08:58.236Z,8.23
2023-04-30T22:11:21.291Z,8.48
2023-04-30T22:13:43.953Z,8.00
2023-04-30T22:16:06.939Z,8.13
2023-04-30T22:18:29.967Z,8.05
2023-04-30T22:20:53.115Z,8.10
2023-04-30T22:23:16.693Z,8.35
2023-04-30T22:25:39.601Z,7.90
2023-04-30T22:28:02.607Z,8.10
2023-04-30T22:30:25.664Z,7.60
2023-04-30T22:32:48.258Z,7.30
2023-04-30T22:35:11.434Z,7.05
2023-04-30T22:37:34.927Z,6.97
2023-04-30T22:39:58.376Z,6.68
2023-04-30T22:42:21.155Z,6.70
2023-04-30T22:44:46.100Z,7.22
2023-04-30T22:47:08.833Z,7.00
2023-04-30T22:49:32.491Z,6.60
2023-04-30T22:51:55.503Z,6.53
2023-04-30T22:54:19.504Z,6.55
2023-04-30T22:56:42.122Z,6.77
2023-04-30T22:59:05.667Z,6.82
2023-04-30T23:01:28.498Z,7.07
2023-04-30T23:03:51.402Z,6.22
2023-04-30T23:06:14.571Z,6.38
2023-04-30T23:08:37.503Z,6.32
2023-04-30T23:11:00.613Z,6.55
2023-04-30T23:13:23.286Z,5.68
2023-04-30T23:15:45.867Z,5.80
2023-04-30T23:18:08.658Z,5.80
2023-04-30T23:20:31.409Z,5.88
2023-04-30T23:22:54.124Z,5.55
2023-04-30T23:25:17.093Z,5.68
2023-04-30T23:27:39.908Z,5.72
2023-04-30T23:30:03.583Z,5.57
2023-04-30T23:32:26.621Z,6.00
2023-04-30T23:34:49.733Z,5.80
2023-04-30T23:37:12.406Z,5.25
2023-04-30T23:39:35.284Z,5.47
2023-04-30T23:41:57.999Z,5.50
2023-04-30T23:44:20.978Z,4.80
2023-04-30T23:46:43.872Z,5.28
2023-04-30T23:49:06.659Z,5.60
2023-04-30T23:51:29.521Z,5.65
2023-04-30T23:53:52.168Z,5.32
2023-04-30T23:56:15.133Z,5.45
2023-04-30T23:58:37.828Z,5.20
